Time;durP1;ratioP1;P1;durP2;ratioP2;P2;SDS_P1;SDS_P2;PMS_P1;PMS_P2;Temp;Humidity;BMP_temperature;BMP_pressure;BME280_temperature;BME280_humidity;BME280_pressure;Samples;Min_cycle;Max_cycle;Signal;HPM_P1;HPM_P2
2022/11/16 06:49:35;;;;;;;75.13;36.38;;;;;;;6.68;100.00;99996.25;4927500;28;20043;-76
2022/11/16 06:52:03;;;;;;;84.47;37.28;;;;;;;6.69;100.00;99992.72;4918385;28;20060;-76
2022/11/16 06:54:31;;;;;;;82.75;38.30;;;;;;;6.71;100.00;99991.72;4918234;28;20540;-75
2022/11/16 06:56:58;;;;;;;83.88;38.40;;;;;;;6.75;100.00;99998.44;4923787;28;20139;-74
2022/11/16 06:59:26;;;;;;;85.15;36.97;;;;;;;6.78;100.00;99998.28;4924397;28;20048;-75
2022/11/16 07:01:53;;;;;;;78.90;37.05;;;;;;;6.76;100.00;100002.78;4913213;28;20504;-75
2022/11/16 07:04:21;;;;;;;84.38;39.08;;;;;;;6.74;100.00;100002.00;4918396;28;20055;-75
2022/11/16 07:06:51;;;;;;;80.95;38.03;;;;;;;6.70;100.00;100003.09;4916991;28;20106;-77
2022/11/16 07:09:19;;;;;;;88.43;39.83;;;;;;;6.73;100.00;100002.09;4919814;28;20063;-77
2022/11/16 07:11:46;;;;;;;77.70;36.05;;;;;;;6.73;100.00;99999.47;4929537;28;20052;-76
2022/11/16 07:14:19;;;;;;;83.03;38.40;;;;;;;6.76;100.00;100008.00;4919409;28;20178;-77
2022/11/16 07:16:49;;;;;;;81.55;37.85;;;;;;;6.81;100.00;100011.22;4919121;28;20066;-76
2022/11/16 07:19:25;;;;;;;84.15;40.03;;;;;;;6.83;100.00;100006.75;4919439;28;20063;-76
2022/11/16 07:21:52;;;;;;;87.47;38.75;;;;;;;6.84;100.00;100005.84;4920790;28;20058;-76
2022/11/16 07:24:20;;;;;;;88.05;38.88;;;;;;;6.85;100.00;100017.16;4992658;28;20396;-76
2022/11/16 07:26:48;;;;;;;87.35;41.17;;;;;;;6.81;100.00;100010.38;4902898;28;20538;-75
2022/11/16 07:29:33;;;;;;;81.43;37.00;;;;;;;6.84;100.00;100011.06;4920433;28;20056;-76
2022/11/16 07:32:00;;;;;;;85.88;36.92;;;;;;;6.81;100.00;100003.38;4920408;28;20055;-77
2022/11/16 07:34:28;;;;;;;84.90;37.42;;;;;;;6.85;100.00;100015.38;4909388;28;20071;-77
2022/11/16 07:36:56;;;;;;;84.22;38.50;;;;;;;6.89;100.00;100012.56;4919533;29;20115;-78
2022/11/16 07:39:24;;;;;;;90.07;39.58;;;;;;;6.84;100.00;100005.84;4892472;28;20555;-76
2022/11/16 07:41:53;;;;;;;81.65;37.80;;;;;;;6.88;100.00;100014.34;4931371;28;20065;-76
2022/11/16 07:44:21;;;;;;;83.80;38.33;;;;;;;6.88;100.00;100003.88;4902872;28;20093;-76
2022/11/16 07:46:51;;;;;;;80.13;37.90;;;;;;;6.91;100.00;100006.34;4923385;29;20598;-76
2022/11/16 07:49:19;;;;;;;92.80;41.28;;;;;;;6.92;100.00;100002.78;4930246;28;20117;-76
2022/11/16 07:51:46;;;;;;;86.22;39.92;;;;;;;6.89;100.00;100013.44;4922584;29;20045;-76
2022/11/16 07:54:14;;;;;;;85.25;38.70;;;;;;;6.89;100.00;100016.06;4921900;29;20585;-76
2022/11/16 07:56:41;;;;;;;88.25;39.63;;;;;;;6.89;100.00;100004.72;4921044;28;20079;-76
2022/11/16 07:59:09;;;;;;;85.40;38.40;;;;;;;6.80;100.00;100012.16;4922567;28;20084;-76
2022/11/16 08:01:40;;;;;;;87.53;38.55;;;;;;;6.77;100.00;100019.31;4918020;28;20109;-75
2022/11/16 08:04:09;;;;;;;91.47;40.72;;;;;;;6.71;100.00;100015.25;4921313;28;20055;-76
2022/11/16 08:06:37;;;;;;;84.03;36.58;;;;;;;6.77;100.00;100019.31;4926445;29;20052;-76
2022/11/16 08:09:04;;;;;;;88.90;38.45;;;;;;;6.79;100.00;100014.84;4918109;28;20477;-76
2022/11/16 08:11:32;;;;;;;85.78;38.50;;;;;;;6.78;100.00;100019.22;4930583;28;20048;-76
2022/11/16 08:14:00;;;;;;;88.38;39.42;;;;;;;6.75;100.00;100014.13;4972779;28;20064;-76
2022/11/16 08:16:27;;;;;;;82.05;35.85;;;;;;;6.81;100.00;100021.69;4911254;28;20578;-76
2022/11/16 08:18:55;;;;;;;80.05;36.72;;;;;;;6.88;100.00;100021.34;4908205;28;20052;-75
2022/11/16 08:21:22;;;;;;;79.32;35.65;;;;;;;6.91;100.00;100011.56;4918172;28;20101;-75
2022/11/16 08:23:53;;;;;;;76.28;37.47;;;;;;;6.91;100.00;100018.59;4899516;28;20186;-76
2022/11/16 08:26:25;;;;;;;75.00;34.97;;;;;;;6.90;100.00;100016.91;4935475;28;20167;-75
2022/11/16 08:28:55;;;;;;;77.80;34.80;;;;;;;6.86;100.00;100013.59;4922021;29;20074;-76
2022/11/16 08:31:27;;;;;;;76.85;35.13;;;;;;;6.90;100.00;100009.88;4922761;29;20056;-76
2022/11/16 08:33:55;;;;;;;85.00;35.38;;;;;;;6.81;100.00;100011.22;4923590;28;20512;-76
2022/11/16 08:36:23;;;;;;;80.13;32.13;;;;;;;6.78;100.00;100006.16;4976457;28;20064;-76
2022/11/16 08:38:51;;;;;;;79.22;32.15;;;;;;;6.78;100.00;100006.16;4925023;28;20101;-75
2022/11/16 08:41:19;;;;;;;74.97;33.03;;;;;;;6.73;100.00;100004.69;4923659;28;20641;-76
2022/11/16 08:43:49;;;;;;;71.03;31.85;;;;;;;6.66;100.00;99992.88;4926153;28;20071;-76
2022/11/16 08:46:17;;;;;;;69.95;30.83;;;;;;;6.67;100.00;99995.41;4915670;29;20060;-76
2022/11/16 08:48:45;;;;;;;64.18;29.88;;;;;;;6.73;100.00;99986.41;4909865;28;20054;-76
2022/11/16 08:51:15;;;;;;;64.45;29.63;;;;;;;6.73;100.00;99989.00;4919433;28;20381;-76
2022/11/16 08:53:47;;;;;;;74.55;32.47;;;;;;;6.70;100.00;99992.63;4914896;28;20036;-76
2022/11/16 08:56:17;;;;;;;73.15;32.08;;;;;;;6.76;100.00;99978.41;4907183;28;20097;-77
2022/11/16 08:58:45;;;;;;;71.60;31.85;;;;;;;6.71;100.00;99980.38;4923357;29;20051;-77
2022/11/16 09:01:16;;;;;;;66.18;30.48;;;;;;;6.69;100.00;99977.84;4928185;28;20566;-77
2022/11/16 09:03:45;;;;;;;76.38;30.33;;;;;;;6.69;100.00;99972.63;4920021;29;20057;-76
2022/11/16 09:06:13;;;;;;;60.05;27.35;;;;;;;6.76;100.00;99976.63;4920109;28;20052;-75
2022/11/16 09:08:42;;;;;;;72.07;30.90;;;;;;;6.76;100.00;99976.63;4933377;28;20525;-76
2022/11/16 09:11:12;;;;;;;57.75;26.80;;;;;;;6.78;100.00;99969.50;4916845;29;20137;-76
2022/11/16 09:13:39;;;;;;;62.22;28.52;;;;;;;6.81;100.00;99977.22;4928372;29;20599;-76
2022/11/16 09:16:07;;;;;;;56.45;26.80;;;;;;;6.80;100.00;99972.06;4918506;28;20113;-76
2022/11/16 09:18:35;;;;;;;62.40;28.08;;;;;;;6.80;100.00;99965.06;4921415;28;20056;-76
2022/11/16 09:21:03;;;;;;;49.80;24.95;;;;;;;6.84;100.00;99963.09;4911763;28;20532;-76
2022/11/16 09:23:33;;;;;;;51.45;23.88;;;;;;;6.92;100.00;99963.53;4920200;28;20079;-77
2022/11/16 09:26:05;;;;;;;57.17;26.70;;;;;;;6.91;100.00;99963.63;4906172;28;20064;-76
2022/11/16 09:28:34;;;;;;;48.67;24.67;;;;;;;6.87;100.00;99968.19;4914204;28;20048;-75
2022/11/16 09:31:33;;;;;;;46.42;23.70;;;;;;;6.82;100.00;99970.22;4924497;28;20075;-75
2022/11/16 09:34:01;;;;;;;43.78;22.88;;;;;;;6.81;100.00;99964.13;4938631;28;20071;-74
2022/11/16 09:36:29;;;;;;;41.83;20.52;;;;;;;6.84;100.00;99955.25;4932645;28;20067;-76
2022/11/16 09:38:58;;;;;;;37.72;20.13;;;;;;;6.81;100.00;99952.81;4924710;29;20056;-76
2022/11/16 09:42:18;;;;;;;38.17;19.27;;;;;;;6.76;100.00;99954.84;4923104;29;20056;-76
2022/11/16 09:44:54;;;;;;;35.50;17.65;;;;;;;6.75;100.00;99948.75;4938968;29;20538;-76
2022/11/16 09:47:41;;;;;;;30.98;17.13;;;;;;;6.80;100.00;99943.28;4913183;29;20056;-76
2022/11/16 09:50:17;;;;;;;;;;;;;;;6.78;100.00;99940.75;4917747;28;20074;-75
2022/11/16 09:52:52;;;;;;;31.00;16.30;;;;;;;6.82;100.00;99944.03;4911065;28;19934;-76
2022/11/16 09:55:28;;;;;;;34.40;18.63;;;;;;;6.79;100.00;99941.59;4918864;29;20121;-76
2022/11/16 09:57:59;;;;;;;34.30;18.60;;;;;;;6.68;100.00;99943.94;4910616;28;20044;-76
2022/11/16 10:00:27;;;;;;;39.28;18.80;;;;;;;6.69;100.00;99937.78;4912397;28;20060;-76
2022/11/16 10:03:00;;;;;;;35.20;19.23;;;;;;;6.76;100.00;99947.84;4920556;28;20393;-76
2022/11/16 10:05:36;;;;;;;36.25;19.02;;;;;;;6.72;100.00;99948.09;4918370;28;20116;-76
2022/11/16 10:08:24;;;;;;;36.58;19.73;;;;;;;6.73;100.00;99937.53;4913838;28;20044;-76
2022/11/16 10:11:29;;;;;;;33.80;17.60;;;;;;;6.83;100.00;99930.88;4915331;28;20051;-76
2022/11/16 10:14:22;;;;;;;34.55;19.27;;;;;;;6.86;100.00;99932.50;4950398;28;20055;-76
2022/11/16 10:17:14;;;;;;;33.90;18.95;;;;;;;6.81;100.00;99942.34;4920813;28;20193;-76
2022/11/16 10:23:48;;;;;;;36.17;19.73;;;;;;;6.64;100.00;99935.41;4920097;28;20024;-76
2022/11/16 10:26:22;;;;;;;37.28;20.52;;;;;;;6.64;100.00;99927.56;4922720;29;20535;-77
2022/11/16 10:29:20;;;;;;;39.00;20.30;;;;;;;6.68;100.00;99926.47;4920928;28;20056;-76
2022/11/16 10:32:20;;;;;;;35.22;19.98;;;;;;;6.71;100.00;99930.69;4919571;28;20044;-76
2022/11/16 10:34:52;;;;;;;36.95;21.33;;;;;;;6.75;100.00;99916.50;4911607;28;20059;-76
2022/11/16 10:37:25;;;;;;;36.15;20.70;;;;;;;6.67;100.00;99921.34;4905460;28;20052;-75
2022/11/16 10:39:55;;;;;;;38.83;20.73;;;;;;;6.65;100.00;99915.34;4994773;28;20044;-76
2022/11/16 10:42:30;;;;;;;38.25;21.23;;;;;;;6.62;100.00;99921.59;4912916;28;20520;-76
2022/11/16 10:45:05;;;;;;;37.78;22.02;;;;;;;6.59;100.00;99906.06;4969922;28;20467;-76
2022/11/16 10:47:49;;;;;;;39.97;22.48;;;;;;;6.62;100.00;99899.78;4917608;28;20075;-77
2022/11/16 10:50:26;;;;;;;42.33;21.58;;;;;;;6.55;100.00;99902.75;4919445;28;20094;-77
2022/11/16 10:52:53;;;;;;;41.95;21.48;;;;;;;6.54;100.00;99908.06;4917444;28;20114;-77
2022/11/16 10:55:21;;;;;;;40.33;21.73;;;;;;;6.57;100.00;99911.38;4922275;28;20056;-77
2022/11/16 10:58:01;;;;;;;43.17;23.23;;;;;;;6.62;100.00;99899.78;4977817;28;20067;-77
2022/11/16 11:00:50;;;;;;;39.53;22.92;;;;;;;6.65;100.00;99897.03;4931774;28;20106;-78
2022/11/16 11:03:29;;;;;;;42.22;22.38;;;;;;;6.74;100.00;99904.38;4932010;28;20055;-76
2022/11/16 11:05:57;;;;;;;40.58;23.67;;;;;;;6.83;100.00;99898.63;4915852;28;20106;-76
2022/11/16 11:08:31;;;;;;;42.38;22.25;;;;;;;6.82;100.00;99907.41;4982798;28;20103;-76
2022/11/16 11:14:11;;;;;;;34.80;21.35;;;;;;;6.88;100.00;99901.84;4954564;28;20056;-76
2022/11/16 11:16:40;;;;;;;43.10;22.08;;;;;;;6.89;100.00;99902.69;4925341;29;20060;-76
2022/11/16 11:19:22;;;;;;;38.92;22.08;;;;;;;6.89;100.00;99903.53;4919541;28;20051;-75
2022/11/16 11:21:54;;;;;;;38.28;21.30;;;;;;;6.92;100.00;99900.75;4918849;29;20090;-76
2022/11/16 11:24:22;;;;;;;40.45;23.30;;;;;;;6.94;100.00;99903.28;4899572;28;20071;-76
2022/11/16 11:27:10;;;;;;;39.50;22.92;;;;;;;6.98;99.94;99903.03;4925954;28;20067;-76
2022/11/16 11:29:40;;;;;;;36.53;22.60;;;;;;;7.04;100.00;99900.06;4914556;29;20496;-76
2022/11/16 11:32:57;;;;;;;37.42;22.20;;;;;;;7.03;99.87;99900.16;5000027;28;20103;-76
2022/11/16 11:35:29;;;;;;;47.60;24.17;;;;;;;6.97;99.58;99898.72;4917305;29;20044;-76
2022/11/16 11:37:59;;;;;;;44.95;24.75;;;;;;;7.02;99.41;99901.06;4918616;28;20056;-75
2022/11/16 11:40:34;;;;;;;43.05;25.17;;;;;;;6.93;99.55;99905.03;4920724;28;20964;-76
2022/11/16 11:43:04;;;;;;;46.17;24.27;;;;;;;6.83;99.48;99907.31;4950452;28;20886;-76
2022/11/16 11:45:38;;;;;;;51.78;26.55;;;;;;;6.82;99.73;99912.66;4913195;28;20520;-76
2022/11/16 11:48:29;;;;;;;38.22;23.38;;;;;;;6.84;100.00;99913.41;4922689;28;20036;-76
2022/11/16 11:51:00;;;;;;;42.47;26.45;;;;;;;6.89;99.82;99907.91;4918274;28;20582;-76
2022/11/16 11:53:30;;;;;;;42.75;24.20;;;;;;;6.85;99.82;99896.78;4919183;28;20066;-75
2022/11/16 11:55:59;;;;;;;45.60;26.00;;;;;;;6.82;99.72;99902.19;4927172;28;20040;-76
2022/11/16 11:58:34;;;;;;;47.72;26.45;;;;;;;6.88;100.00;99901.00;4926465;28;20055;-76
2022/11/16 12:01:20;;;;;;;41.95;23.48;;;;;;;6.93;99.85;99901.59;4936877;29;20052;-76
2022/11/16 12:04:07;;;;;;;40.75;23.67;;;;;;;6.91;99.40;99898.22;4931074;28;20156;-76
2022/11/16 12:07:02;;;;;;;38.97;23.35;;;;;;;6.88;99.10;99903.63;4931157;28;20051;-76
2022/11/16 12:09:43;;;;;;;44.33;24.13;;;;;;;6.88;98.96;99901.00;4922415;28;20102;-77
2022/11/16 12:12:32;;;;;;;41.63;24.15;;;;;;;6.89;99.34;99900.06;4919838;28;20166;-77
2022/11/16 12:15:02;;;;;;;43.90;23.65;;;;;;;6.88;99.50;99907.06;4946252;28;20055;-77
2022/11/16 12:17:54;;;;;;;44.28;25.13;;;;;;;6.85;99.32;99907.25;4922088;28;20047;-77
2022/11/16 12:20:47;;;;;;;46.53;24.75;;;;;;;6.92;98.96;99905.13;4931357;28;20075;-80
2022/11/16 12:23:38;;;;;;;41.60;22.85;;;;;;;6.83;98.75;99909.94;4930455;28;20113;-76
2022/11/16 12:26:33;;;;;;;39.55;23.83;;;;;;;6.89;98.80;99905.28;4939712;28;20064;-76
2022/11/16 12:29:28;;;;;;;39.22;24.55;;;;;;;6.85;98.22;99909.88;4932551;28;20059;-77
2022/11/16 12:32:07;;;;;;;36.97;22.42;;;;;;;6.84;98.40;99908.16;4927565;28;21410;-77
2022/11/16 12:34:51;;;;;;;41.30;23.52;;;;;;;6.86;98.35;99911.56;4902774;28;20048;-77
2022/11/16 12:37:28;;;;;;;37.80;23.67;;;;;;;6.83;98.34;99909.94;4907492;28;20062;-76
2022/11/16 12:40:05;;;;;;;38.80;24.25;;;;;;;6.86;98.06;99908.94;4919724;29;20178;-77
2022/11/16 12:43:01;;;;;;;34.28;21.75;;;;;;;6.87;97.86;99904.53;4921867;28;20106;-77
2022/11/16 12:46:00;;;;;;;37.97;23.23;;;;;;;6.83;97.60;99903.88;4917331;28;20074;-77
2022/11/16 12:48:28;;;;;;;36.70;22.77;;;;;;;6.85;97.71;99896.78;4919881;28;20067;-76
2022/11/16 12:51:17;;;;;;;37.38;23.15;;;;;;;6.86;98.11;99898.47;4929172;28;20055;-76
2022/11/16 12:54:14;;;;;;;35.67;22.60;;;;;;;6.91;98.11;99901.69;4918534;28;20618;-76
2022/11/16 12:56:59;;;;;;;36.05;22.67;;;;;;;6.85;97.41;99900.25;4922618;29;20052;-76
2022/11/16 12:59:51;;;;;;;35.67;20.83;;;;;;;6.82;97.37;99895.19;4927725;29;20110;-76
2022/11/16 13:02:57;;;;;;;38.15;23.30;;;;;;;6.90;97.14;99899.16;4922673;28;20035;-76
2022/11/16 13:05:45;;;;;;;36.58;23.58;;;;;;;6.84;97.55;99905.53;4920210;28;20078;-76
2022/11/16 13:08:32;;;;;;;33.63;21.92;;;;;;;6.88;97.60;99899.22;4935866;28;20039;-76
2022/11/16 13:11:10;;;;;;;32.65;21.55;;;;;;;6.96;97.38;99893.56;4915167;29;20685;-76
2022/11/16 13:13:39;;;;;;;29.73;21.08;;;;;;;7.01;96.52;99895.00;4916334;28;20063;-76
2022/11/16 13:16:08;;;;;;;28.45;20.48;;;;;;;7.03;96.50;99894.94;4924471;29;20068;-77
2022/11/16 13:18:42;;;;;;;32.40;21.40;;;;;;;7.10;97.02;99894.47;4917912;28;20047;-75
2022/11/16 13:21:36;;;;;;;32.38;22.08;;;;;;;7.13;96.50;99895.25;4921210;28;20063;-76
2022/11/16 13:24:14;;;;;;;31.08;20.63;;;;;;;7.19;95.47;99890.50;4929915;28;20546;-76
2022/11/16 13:27:06;;;;;;;31.45;20.33;;;;;;;7.20;94.77;99892.19;4927558;28;20043;-76
2022/11/16 13:29:41;;;;;;;28.13;20.17;;;;;;;7.21;94.75;99882.59;4927713;28;20064;-76
2022/11/16 13:32:24;;;;;;;29.40;19.45;;;;;;;7.20;94.88;99881.72;4922614;28;20136;-76
2022/11/16 13:34:53;;;;;;;28.60;19.40;;;;;;;7.19;95.08;99879.19;4915516;29;20169;-77
2022/11/16 13:37:39;;;;;;;29.20;19.80;;;;;;;7.14;95.22;99883.84;4943814;28;20059;-76
2022/11/16 13:40:07;;;;;;;28.25;18.05;;;;;;;7.12;94.90;99876.09;4918898;28;20056;-77
2022/11/16 13:42:39;;;;;;;25.15;17.58;;;;;;;7.12;95.25;99872.63;4918979;28;20102;-76
2022/11/16 13:45:22;;;;;;;26.38;17.35;;;;;;;7.17;94.50;99871.44;4907520;28;20063;-76
2022/11/16 13:47:54;;;;;;;27.25;18.80;;;;;;;7.15;94.45;99875.91;4918751;28;20174;-76
2022/11/16 13:50:28;;;;;;;27.55;18.08;;;;;;;7.20;94.14;99873.84;4935038;28;20052;-76
2022/11/16 13:53:11;;;;;;;26.52;18.05;;;;;;;7.13;93.87;99871.69;4925415;28;20071;-76
2022/11/16 13:56:01;;;;;;;25.13;17.00;;;;;;;7.08;94.24;99875.41;4922671;28;20110;-76
2022/11/16 13:58:30;;;;;;;25.70;16.77;;;;;;;7.04;94.55;99867.81;4918338;29;20052;-76
2022/11/16 14:01:14;;;;;;;27.13;18.65;;;;;;;6.97;95.10;99875.16;4937373;28;20039;-76
2022/11/16 14:04:37;;;;;;;26.90;17.88;;;;;;;7.00;94.94;99880.22;4931114;28;20119;-76
2022/11/16 14:07:34;;;;;;;27.40;17.50;;;;;;;7.01;94.75;99876.69;4929006;28;20066;-77
2022/11/16 14:10:04;;;;;;;24.58;16.75;;;;;;;7.07;95.16;99878.97;4925644;28;20098;-76
2022/11/16 14:12:35;;;;;;;27.10;17.17;;;;;;;7.14;94.37;99876.00;4917726;28;20063;-76
2022/11/16 14:15:10;;;;;;;24.63;16.63;;;;;;;7.08;94.35;99869.34;4928583;28;20566;-76
2022/11/16 14:18:10;;;;;;;23.70;16.60;;;;;;;7.07;94.77;99865.88;4918381;28;20105;-77
2022/11/16 14:20:49;;;;;;;23.98;15.93;;;;;;;7.09;94.76;99873.63;4922025;28;20063;-76
2022/11/16 14:23:28;;;;;;;24.23;16.95;;;;;;;7.16;94.56;99872.38;4988611;28;20128;-77
2022/11/16 14:26:01;;;;;;;25.33;17.23;;;;;;;7.13;94.06;99871.69;4918145;28;20851;-77
2022/11/16 14:28:36;;;;;;;23.63;15.35;;;;;;;7.13;94.19;99871.69;4938382;28;20068;-76
2022/11/16 14:31:20;;;;;;;22.92;16.40;;;;;;;7.10;94.20;99877.94;4919100;28;20464;-76
2022/11/16 14:33:53;;;;;;;22.90;16.08;;;;;;;7.08;93.96;99871.97;4914967;28;20043;-76
2022/11/16 14:36:42;;;;;;;22.70;15.25;;;;;;;7.08;94.05;99879.81;4938526;28;20098;-76
2022/11/16 14:39:29;;;;;;;21.33;14.75;;;;;;;7.14;93.83;99876.00;4918168;28;20091;-75
2022/11/16 14:50:29;;;;;;;22.83;14.98;;;;;;;7.27;93.49;99871.75;4920220;28;20046;-75
2022/11/16 15:02:52;;;;;;;23.30;15.13;;;;;;;7.20;93.04;99862.53;4895668;28;20178;-76
2022/11/16 15:05:32;;;;;;;21.60;14.13;;;;;;;7.15;93.28;99865.44;4913833;29;20055;-75
2022/11/16 15:08:04;;;;;;;20.83;13.50;;;;;;;7.10;92.56;99859.63;4899160;28;20079;-75
2022/11/16 15:10:32;;;;;;;20.15;13.75;;;;;;;7.09;93.32;99861.38;4888855;28;20048;-76
2022/11/16 15:13:03;;;;;;;23.83;15.70;;;;;;;7.12;93.20;99859.53;4942796;28;20039;-75
2022/11/16 16:12:53;;;;;;;15.20;9.63;;;;;;;6.88;91.69;99839.03;4921777;28;20058;-76
2022/11/16 16:16:11;;;;;;;16.23;9.85;;;;;;;6.89;91.34;99842.50;4915660;28;20067;-76
2022/11/16 16:23:30;;;;;;;15.63;9.90;;;;;;;6.90;92.32;99845.06;4922545;28;20059;-75
2022/11/16 16:38:55;;;;;;;18.48;12.10;;;;;;;6.83;91.72;99860.22;4921095;28;20047;-76
2022/11/16 16:41:23;;;;;;;21.10;12.45;;;;;;;6.83;91.73;99855.00;4918656;28;20056;-76
2022/11/16 16:43:51;;;;;;;23.17;11.35;;;;;;;6.88;92.25;99854.75;4920133;28;20199;-76
2022/11/16 16:46:44;;;;;;;18.70;11.10;;;;;;;6.90;91.90;99860.75;4916959;29;20067;-76
2022/11/16 16:49:11;;;;;;;16.70;10.90;;;;;;;6.92;91.23;99856.25;4921890;28;20059;-76
2022/11/16 16:51:39;;;;;;;15.85;10.77;;;;;;;6.96;90.81;99852.53;4926951;28;20044;-76
2022/11/16 16:54:08;;;;;;;16.08;10.57;;;;;;;6.88;90.57;99859.97;4922509;29;20121;-76
2022/11/16 16:56:35;;;;;;;15.85;10.40;;;;;;;6.84;90.53;99848.88;4984259;28;20146;-76
2022/11/16 16:59:03;;;;;;;15.30;10.43;;;;;;;6.80;89.94;99852.56;4925927;28;20059;-74
2022/11/16 17:01:30;;;;;;;16.92;10.77;;;;;;;6.82;90.51;99845.47;4928954;29;20106;-76
2022/11/16 17:08:10;;;;;;;19.60;12.07;;;;;;;6.83;91.20;99849.75;4939220;28;20051;-75
2022/11/16 17:10:38;;;;;;;18.23;11.80;;;;;;;6.79;90.79;99852.63;4945517;28;20052;-74
2022/11/16 17:13:09;;;;;;;16.50;11.43;;;;;;;6.74;91.46;99852.06;4945472;28;20051;-76
2022/11/16 17:15:37;;;;;;;20.70;11.85;;;;;;;6.75;91.98;99851.97;4899994;28;20056;-77
2022/11/16 17:18:06;;;;;;;17.65;10.90;;;;;;;6.76;91.95;99850.22;4936165;28;20052;-77
2022/11/16 17:20:34;;;;;;;20.95;12.25;;;;;;;6.76;91.74;99858.06;4916752;28;20060;-75
2022/11/16 17:23:01;;;;;;;16.70;10.80;;;;;;;6.80;91.78;99849.13;4917567;28;20516;-76
2022/11/16 17:25:31;;;;;;;14.77;9.85;;;;;;;6.76;91.75;99852.84;4948625;28;20102;-76
2022/11/16 17:27:59;;;;;;;15.75;11.20;;;;;;;6.80;91.69;99847.34;4928405;28;20392;-77
2022/11/16 17:30:27;;;;;;;16.73;11.05;;;;;;;6.79;91.36;99848.25;4919987;28;20112;-76
2022/11/16 17:32:55;;;;;;;15.75;10.93;;;;;;;6.72;91.18;99849.53;4924268;28;20062;-77
2022/11/16 18:42:04;;;;;;;9.20;7.10;;;;;;;6.62;87.69;99876.25;4930149;28;20070;-75
2022/11/16 19:01:51;;;;;;;10.00;7.20;;;;;;;6.55;86.92;99855.69;4921717;28;20694;-75
2022/11/16 19:22:25;;;;;;;8.30;6.68;;;;;;;6.45;86.11;99862.34;4916059;28;20601;-76
2022/11/16 19:28:42;;;;;;;7.43;5.93;;;;;;;6.49;87.70;99857.81;4911527;28;20020;-75
2022/11/16 20:32:20;;;;;;;7.63;6.18;;;;;;;6.25;85.33;99897.38;4946377;28;20082;-78
2022/11/16 20:39:10;;;;;;;;;;;;;;;6.19;84.81;99897.72;4942359;28;20073;-76
2022/11/16 20:41:38;;;;;;;10.48;6.25;;;;;;;6.13;85.08;99894.59;4927279;28;19927;-75
2022/11/16 20:44:06;;;;;;;8.98;6.68;;;;;;;6.10;85.50;99900.81;4923894;28;20151;-76
2022/11/16 20:46:41;;;;;;;8.50;6.07;;;;;;;6.13;86.32;99912.88;4930663;28;20151;-76
2022/11/16 20:49:08;;;;;;;10.45;6.82;;;;;;;6.19;86.06;99908.16;4930911;28;20056;-76
2022/11/16 20:51:36;;;;;;;8.75;7.60;;;;;;;6.16;85.45;99903.09;4942894;28;20059;-77
2022/11/16 20:58:56;;;;;;;7.80;6.35;;;;;;;6.27;85.82;99897.31;4929302;28;20071;-76
2022/11/16 23:49:03;;;;;;;10.15;8.32;;;;;;;4.77;83.96;99863.88;4933282;28;20146;-76
